sensor_id;sensor_type;location;lat;lon;timestamp;temperature;humidity
11491;DHT22;5802;52.832;4.758;2023-03-23T00:01:54;22.60;45.80
11491;DHT22;5802;52.832;4.758;2023-03-23T00:04:20;22.60;45.80
11491;DHT22;5802;52.832;4.758;2023-03-23T00:06:48;22.60;45.70
11491;DHT22;5802;52.832;4.758;2023-03-23T00:09:16;22.60;45.70
11491;DHT22;5802;52.832;4.758;2023-03-23T00:11:49;22.60;45.70
11491;DHT22;5802;52.832;4.758;2023-03-23T00:14:16;22.60;45.70
11491;DHT22;5802;52.832;4.758;2023-03-23T00:16:47;22.60;45.70
11491;DHT22;5802;52.832;4.758;2023-03-23T00:19:15;22.60;45.70
11491;DHT22;5802;52.832;4.758;2023-03-23T00:21:45;22.60;45.70
11491;DHT22;5802;52.832;4.758;2023-03-23T00:24:13;22.60;45.70
11491;DHT22;5802;52.832;4.758;2023-03-23T00:26:44;22.60;45.70
11491;DHT22;5802;52.832;4.758;2023-03-23T00:29:13;22.60;45.60
11491;DHT22;5802;52.832;4.758;2023-03-23T00:31:40;22.60;45.60
11491;DHT22;5802;52.832;4.758;2023-03-23T00:34:13;22.60;45.70
11491;DHT22;5802;52.832;4.758;2023-03-23T00:36:43;22.60;45.60
11491;DHT22;5802;52.832;4.758;2023-03-23T00:39:10;22.60;45.60
11491;DHT22;5802;52.832;4.758;2023-03-23T00:41:37;22.60;45.60
11491;DHT22;5802;52.832;4.758;2023-03-23T00:44:06;22.60;45.60
11491;DHT22;5802;52.832;4.758;2023-03-23T00:46:34;22.60;45.60
11491;DHT22;5802;52.832;4.758;2023-03-23T00:49:11;22.60;45.50
11491;DHT22;5802;52.832;4.758;2023-03-23T00:51:38;22.60;45.60
11491;DHT22;5802;52.832;4.758;2023-03-23T00:54:05;22.60;45.50
11491;DHT22;5802;52.832;4.758;2023-03-23T00:56:32;22.60;45.50
11491;DHT22;5802;52.832;4.758;2023-03-23T00:58:59;22.60;45.50
11491;DHT22;5802;52.832;4.758;2023-03-23T01:01:27;22.60;45.50
11491;DHT22;5802;52.832;4.758;2023-03-23T01:03:54;22.60;45.50
11491;DHT22;5802;52.832;4.758;2023-03-23T01:06:27;22.60;45.50
11491;DHT22;5802;52.832;4.758;2023-03-23T01:08:54;22.60;45.50
11491;DHT22;5802;52.832;4.758;2023-03-23T01:11:22;22.60;45.50
11491;DHT22;5802;52.832;4.758;2023-03-23T01:13:49;22.60;45.50
11491;DHT22;5802;52.832;4.758;2023-03-23T01:16:16;22.60;45.40
11491;DHT22;5802;52.832;4.758;2023-03-23T01:18:44;22.60;45.50
11491;DHT22;5802;52.832;4.758;2023-03-23T01:21:13;22.60;45.40
11491;DHT22;5802;52.832;4.758;2023-03-23T01:23:40;22.60;45.40
11491;DHT22;5802;52.832;4.758;2023-03-23T01:26:09;22.60;45.50
11491;DHT22;5802;52.832;4.758;2023-03-23T01:28:37;22.60;45.40
11491;DHT22;5802;52.832;4.758;2023-03-23T01:31:06;22.60;45.40
11491;DHT22;5802;52.832;4.758;2023-03-23T01:33:33;22.60;45.40
11491;DHT22;5802;52.832;4.758;2023-03-23T01:36:04;22.60;45.40
11491;DHT22;5802;52.832;4.758;2023-03-23T01:38:31;22.60;45.40
11491;DHT22;5802;52.832;4.758;2023-03-23T01:40:58;22.60;45.40
11491;DHT22;5802;52.832;4.758;2023-03-23T01:43:24;22.60;45.40
11491;DHT22;5802;52.832;4.758;2023-03-23T01:45:51;22.60;45.40
11491;DHT22;5802;52.832;4.758;2023-03-23T01:48:23;22.60;45.30
11491;DHT22;5802;52.832;4.758;2023-03-23T01:50:56;22.60;45.40
11491;DHT22;5802;52.832;4.758;2023-03-23T01:53:30;22.60;45.40
11491;DHT22;5802;52.832;4.758;2023-03-23T01:55:58;22.60;45.40
11491;DHT22;5802;52.832;4.758;2023-03-23T01:58:28;22.60;45.40
11491;DHT22;5802;52.832;4.758;2023-03-23T02:00:58;22.60;45.40
11491;DHT22;5802;52.832;4.758;2023-03-23T02:03:27;22.60;45.40
11491;DHT22;5802;52.832;4.758;2023-03-23T02:05:57;22.60;45.40
11491;DHT22;5802;52.832;4.758;2023-03-23T02:08:27;22.60;45.30
11491;DHT22;5802;52.832;4.758;2023-03-23T02:10:55;22.60;45.30
11491;DHT22;5802;52.832;4.758;2023-03-23T02:13:22;22.60;46.00
11491;DHT22;5802;52.832;4.758;2023-03-23T02:15:56;22.60;45.20
11491;DHT22;5802;52.832;4.758;2023-03-23T02:18:40;22.60;45.30
11491;DHT22;5802;52.832;4.758;2023-03-23T02:24:30;22.60;45.30
11491;DHT22;5802;52.832;4.758;2023-03-23T02:27:02;22.60;45.30
11491;DHT22;5802;52.832;4.758;2023-03-23T02:32:39;22.60;45.40
11491;DHT22;5802;52.832;4.758;2023-03-23T02:35:18;22.50;45.30
11491;DHT22;5802;52.832;4.758;2023-03-23T02:37:49;22.60;45.40
11491;DHT22;5802;52.832;4.758;2023-03-23T02:40:19;22.50;45.30
11491;DHT22;5802;52.832;4.758;2023-03-23T02:42:49;22.60;45.30
11491;DHT22;5802;52.832;4.758;2023-03-23T02:45:17;22.60;45.30
11491;DHT22;5802;52.832;4.758;2023-03-23T02:47:46;22.60;45.30
11491;DHT22;5802;52.832;4.758;2023-03-23T02:50:16;22.60;45.90
11491;DHT22;5802;52.832;4.758;2023-03-23T02:52:45;22.50;45.20
11491;DHT22;5802;52.832;4.758;2023-03-23T02:55:13;22.60;45.20
11491;DHT22;5802;52.832;4.758;2023-03-23T02:57:41;22.60;45.20
11491;DHT22;5802;52.832;4.758;2023-03-23T03:00:13;22.60;45.20
11491;DHT22;5802;52.832;4.758;2023-03-23T03:02:43;22.60;45.20
11491;DHT22;5802;52.832;4.758;2023-03-23T03:05:17;22.50;45.10
11491;DHT22;5802;52.832;4.758;2023-03-23T03:07:57;22.60;45.20
11491;DHT22;5802;52.832;4.758;2023-03-23T03:10:31;22.60;45.20
11491;DHT22;5802;52.832;4.758;2023-03-23T03:13:05;22.60;45.20
11491;DHT22;5802;52.832;4.758;2023-03-23T03:15:37;22.60;45.20
11491;DHT22;5802;52.832;4.758;2023-03-23T03:18:12;22.60;45.20
11491;DHT22;5802;52.832;4.758;2023-03-23T03:20:44;22.60;45.20
11491;DHT22;5802;52.832;4.758;2023-03-23T03:23:13;22.60;45.20
11491;DHT22;5802;52.832;4.758;2023-03-23T03:25:42;22.60;45.10
11491;DHT22;5802;52.832;4.758;2023-03-23T03:28:14;22.60;45.10
11491;DHT22;5802;52.832;4.758;2023-03-23T03:30:42;22.60;45.10
11491;DHT22;5802;52.832;4.758;2023-03-23T03:33:12;22.60;45.10
11491;DHT22;5802;52.832;4.758;2023-03-23T03:35:42;22.60;45.10
11491;DHT22;5802;52.832;4.758;2023-03-23T03:38:10;22.60;45.10
11491;DHT22;5802;52.832;4.758;2023-03-23T03:40:38;22.60;45.10
11491;DHT22;5802;52.832;4.758;2023-03-23T03:43:05;22.60;45.00
11491;DHT22;5802;52.832;4.758;2023-03-23T03:45:32;22.60;45.10
11491;DHT22;5802;52.832;4.758;2023-03-23T03:47:59;22.50;45.00
11491;DHT22;5802;52.832;4.758;2023-03-23T03:50:26;22.60;45.00
11491;DHT22;5802;52.832;4.758;2023-03-23T03:52:54;22.60;45.00
11491;DHT22;5802;52.832;4.758;2023-03-23T03:55:20;22.60;45.00
11491;DHT22;5802;52.832;4.758;2023-03-23T03:57:47;22.60;45.00
11491;DHT22;5802;52.832;4.758;2023-03-23T04:00:15;22.60;45.00
11491;DHT22;5802;52.832;4.758;2023-03-23T04:02:44;22.60;44.90
11491;DHT22;5802;52.832;4.758;2023-03-23T04:05:13;22.60;45.00
11491;DHT22;5802;52.832;4.758;2023-03-23T04:07:40;22.60;45.00
11491;DHT22;5802;52.832;4.758;2023-03-23T04:10:10;22.60;44.90
11491;DHT22;5802;52.832;4.758;2023-03-23T04:12:38;22.60;44.90
11491;DHT22;5802;52.832;4.758;2023-03-23T04:15:06;22.60;44.90
11491;DHT22;5802;52.832;4.758;2023-03-23T04:17:34;22.60;45.50
11491;DHT22;5802;52.832;4.758;2023-03-23T04:20:01;22.60;44.90
11491;DHT22;5802;52.832;4.758;2023-03-23T04:22:31;22.60;44.90
11491;DHT22;5802;52.832;4.758;2023-03-23T04:24:59;22.60;44.90
11491;DHT22;5802;52.832;4.758;2023-03-23T04:27:29;22.60;44.90
11491;DHT22;5802;52.832;4.758;2023-03-23T04:29:56;22.60;44.90
11491;DHT22;5802;52.832;4.758;2023-03-23T04:32:24;22.50;44.90
11491;DHT22;5802;52.832;4.758;2023-03-23T04:34:54;22.60;44.90
11491;DHT22;5802;52.832;4.758;2023-03-23T04:37:21;22.60;44.90
11491;DHT22;5802;52.832;4.758;2023-03-23T04:39:51;22.60;44.90
11491;DHT22;5802;52.832;4.758;2023-03-23T04:42:28;22.50;44.90
11491;DHT22;5802;52.832;4.758;2023-03-23T04:44:55;22.50;44.90
11491;DHT22;5802;52.832;4.758;2023-03-23T04:47:22;22.50;44.90
11491;DHT22;5802;52.832;4.758;2023-03-23T04:49:49;22.50;44.90
11491;DHT22;5802;52.832;4.758;2023-03-23T04:52:17;22.50;44.80
11491;DHT22;5802;52.832;4.758;2023-03-23T04:54:45;22.50;44.80
11491;DHT22;5802;52.832;4.758;2023-03-23T04:57:12;22.50;44.80
11491;DHT22;5802;52.832;4.758;2023-03-23T04:59:42;22.60;44.90
11491;DHT22;5802;52.832;4.758;2023-03-23T05:02:09;22.50;44.80
11491;DHT22;5802;52.832;4.758;2023-03-23T05:04:36;22.50;44.80
11491;DHT22;5802;52.832;4.758;2023-03-23T05:07:03;22.50;44.70
11491;DHT22;5802;52.832;4.758;2023-03-23T05:09:31;22.50;44.70
11491;DHT22;5802;52.832;4.758;2023-03-23T05:11:57;22.50;44.70
11491;DHT22;5802;52.832;4.758;2023-03-23T05:14:29;22.60;44.80
11491;DHT22;5802;52.832;4.758;2023-03-23T05:16:57;22.50;44.70
11491;DHT22;5802;52.832;4.758;2023-03-23T05:19:24;22.60;44.80
11491;DHT22;5802;52.832;4.758;2023-03-23T05:21:51;22.50;44.80
11491;DHT22;5802;52.832;4.758;2023-03-23T05:24:19;22.50;44.70
11491;DHT22;5802;52.832;4.758;2023-03-23T05:26:46;22.50;44.80
11491;DHT22;5802;52.832;4.758;2023-03-23T05:29:13;22.50;44.70
11491;DHT22;5802;52.832;4.758;2023-03-23T05:31:41;22.50;44.80
11491;DHT22;5802;52.832;4.758;2023-03-23T05:34:09;22.50;44.70
11491;DHT22;5802;52.832;4.758;2023-03-23T05:36:37;22.50;44.70
11491;DHT22;5802;52.832;4.758;2023-03-23T05:39:04;22.50;44.70
11491;DHT22;5802;52.832;4.758;2023-03-23T05:41:30;22.50;44.70
11491;DHT22;5802;52.832;4.758;2023-03-23T05:43:58;22.50;44.70
11491;DHT22;5802;52.832;4.758;2023-03-23T05:46:25;22.50;44.70
11491;DHT22;5802;52.832;4.758;2023-03-23T05:48:52;22.50;44.70
11491;DHT22;5802;52.832;4.758;2023-03-23T05:51:20;22.50;44.70
11491;DHT22;5802;52.832;4.758;2023-03-23T05:53:47;22.50;44.70
11491;DHT22;5802;52.832;4.758;2023-03-23T05:56:14;22.50;44.70
11491;DHT22;5802;52.832;4.758;2023-03-23T05:58:40;22.50;44.70
11491;DHT22;5802;52.832;4.758;2023-03-23T06:01:07;22.50;44.70
11491;DHT22;5802;52.832;4.758;2023-03-23T06:03:37;22.50;44.70
11491;DHT22;5802;52.832;4.758;2023-03-23T06:06:04;22.50;44.70
11491;DHT22;5802;52.832;4.758;2023-03-23T06:08:33;22.50;45.00
11491;DHT22;5802;52.832;4.758;2023-03-23T06:11:02;22.50;44.70
11491;DHT22;5802;52.832;4.758;2023-03-23T06:13:29;22.50;44.80
11491;DHT22;5802;52.832;4.758;2023-03-23T06:15:57;22.50;44.90
11491;DHT22;5802;52.832;4.758;2023-03-23T06:18:24;22.50;44.90
11491;DHT22;5802;52.832;4.758;2023-03-23T06:20:53;22.50;44.90
11491;DHT22;5802;52.832;4.758;2023-03-23T06:23:19;22.50;45.00
11491;DHT22;5802;52.832;4.758;2023-03-23T06:25:47;22.50;45.00
11491;DHT22;5802;52.832;4.758;2023-03-23T06:28:14;22.50;45.60
11491;DHT22;5802;52.832;4.758;2023-03-23T06:30:42;22.50;44.90
11491;DHT22;5802;52.832;4.758;2023-03-23T06:33:09;22.60;45.00
11491;DHT22;5802;52.832;4.758;2023-03-23T06:35:36;22.60;45.00
11491;DHT22;5802;52.832;4.758;2023-03-23T06:38:03;22.60;45.00
11491;DHT22;5802;52.832;4.758;2023-03-23T06:40:29;22.60;44.90
11491;DHT22;5802;52.832;4.758;2023-03-23T06:42:58;22.50;44.90
11491;DHT22;5802;52.832;4.758;2023-03-23T06:45:25;22.60;44.90
11491;DHT22;5802;52.832;4.758;2023-03-23T06:47:52;22.60;44.90
11491;DHT22;5802;52.832;4.758;2023-03-23T06:50:18;22.60;44.90
11491;DHT22;5802;52.832;4.758;2023-03-23T06:52:46;22.60;44.80
11491;DHT22;5802;52.832;4.758;2023-03-23T06:55:13;22.60;44.80
11491;DHT22;5802;52.832;4.758;2023-03-23T06:57:40;22.60;44.80
11491;DHT22;5802;52.832;4.758;2023-03-23T07:00:09;22.70;44.80
11491;DHT22;5802;52.832;4.758;2023-03-23T07:02:37;22.70;44.80
11491;DHT22;5802;52.832;4.758;2023-03-23T07:05:05;22.70;44.70
11491;DHT22;5802;52.832;4.758;2023-03-23T07:07:32;22.70;44.80
11491;DHT22;5802;52.832;4.758;2023-03-23T07:09:59;22.70;44.70
11491;DHT22;5802;52.832;4.758;2023-03-23T07:12:26;22.70;44.70
11491;DHT22;5802;52.832;4.758;2023-03-23T07:14:54;22.70;44.70
11491;DHT22;5802;52.832;4.758;2023-03-23T07:17:23;22.70;44.80
11491;DHT22;5802;52.832;4.758;2023-03-23T07:19:49;22.70;44.70
11491;DHT22;5802;52.832;4.758;2023-03-23T07:22:16;22.70;44.70
11491;DHT22;5802;52.832;4.758;2023-03-23T07:24:43;22.70;44.80
11491;DHT22;5802;52.832;4.758;2023-03-23T07:27:09;22.70;44.80
11491;DHT22;5802;52.832;4.758;2023-03-23T07:29:36;22.70;44.70
11491;DHT22;5802;52.832;4.758;2023-03-23T07:32:04;22.70;44.80
11491;DHT22;5802;52.832;4.758;2023-03-23T07:34:32;22.80;44.80
11491;DHT22;5802;52.832;4.758;2023-03-23T07:36:59;22.80;44.80
11491;DHT22;5802;52.832;4.758;2023-03-23T07:39:26;22.80;44.80
11491;DHT22;5802;52.832;4.758;2023-03-23T07:41:52;22.80;45.40
11491;DHT22;5802;52.832;4.758;2023-03-23T07:44:19;22.80;44.80
11491;DHT22;5802;52.832;4.758;2023-03-23T07:46:46;22.90;44.80
11491;DHT22;5802;52.832;4.758;2023-03-23T07:49:14;22.90;44.80
11491;DHT22;5802;52.832;4.758;2023-03-23T07:51:42;22.90;44.70
11491;DHT22;5802;52.832;4.758;2023-03-23T07:54:09;22.90;44.60
11491;DHT22;5802;52.832;4.758;2023-03-23T07:56:36;23.00;44.60
11491;DHT22;5802;52.832;4.758;2023-03-23T07:59:05;23.00;44.50
11491;DHT22;5802;52.832;4.758;2023-03-23T08:01:32;23.00;44.50
11491;DHT22;5802;52.832;4.758;2023-03-23T08:03:59;23.00;44.40
11491;DHT22;5802;52.832;4.758;2023-03-23T08:06:26;23.10;44.40
11491;DHT22;5802;52.832;4.758;2023-03-23T08:08:55;23.10;44.30
11491;DHT22;5802;52.832;4.758;2023-03-23T08:11:22;23.10;44.20
11491;DHT22;5802;52.832;4.758;2023-03-23T08:13:49;23.10;44.20
11491;DHT22;5802;52.832;4.758;2023-03-23T08:16:15;23.20;44.20
11491;DHT22;5802;52.832;4.758;2023-03-23T08:18:44;23.20;44.10
11491;DHT22;5802;52.832;4.758;2023-03-23T08:21:11;23.20;44.10
11491;DHT22;5802;52.832;4.758;2023-03-23T08:23:38;23.30;44.10
11491;DHT22;5802;52.832;4.758;2023-03-23T08:26:07;23.30;44.10
11491;DHT22;5802;52.832;4.758;2023-03-23T08:28:34;23.40;44.10
11491;DHT22;5802;52.832;4.758;2023-03-23T08:31:06;23.40;44.00
11491;DHT22;5802;52.832;4.758;2023-03-23T08:33:33;23.40;43.90
11491;DHT22;5802;52.832;4.758;2023-03-23T08:36:00;23.50;43.90
11491;DHT22;5802;52.832;4.758;2023-03-23T08:38:29;23.50;44.50
11491;DHT22;5802;52.832;4.758;2023-03-23T08:40:57;23.50;43.80
11491;DHT22;5802;52.832;4.758;2023-03-23T08:43:26;23.60;43.80
11491;DHT22;5802;52.832;4.758;2023-03-23T08:45:53;23.60;43.80
11491;DHT22;5802;52.832;4.758;2023-03-23T08:48:21;23.60;43.70
11491;DHT22;5802;52.832;4.758;2023-03-23T08:50:48;23.70;43.70
11491;DHT22;5802;52.832;4.758;2023-03-23T08:53:15;23.70;43.70
11491;DHT22;5802;52.832;4.758;2023-03-23T08:55:42;23.70;43.60
11491;DHT22;5802;52.832;4.758;2023-03-23T08:58:10;23.80;44.30
11491;DHT22;5802;52.832;4.758;2023-03-23T09:00:38;23.80;43.60
11491;DHT22;5802;52.832;4.758;2023-03-23T09:03:05;23.90;43.60
11491;DHT22;5802;52.832;4.758;2023-03-23T09:05:32;23.90;43.50
11491;DHT22;5802;52.832;4.758;2023-03-23T09:07:59;23.90;43.40
11491;DHT22;5802;52.832;4.758;2023-03-23T09:10:27;24.00;43.50
11491;DHT22;5802;52.832;4.758;2023-03-23T09:12:55;24.00;43.40
11491;DHT22;5802;52.832;4.758;2023-03-23T09:15:23;24.10;43.30
11491;DHT22;5802;52.832;4.758;2023-03-23T09:17:52;24.10;43.30
11491;DHT22;5802;52.832;4.758;2023-03-23T09:20:22;24.10;43.30
11491;DHT22;5802;52.832;4.758;2023-03-23T09:22:50;24.20;43.20
11491;DHT22;5802;52.832;4.758;2023-03-23T09:25:20;24.20;43.20
11491;DHT22;5802;52.832;4.758;2023-03-23T09:27:49;24.20;43.20
11491;DHT22;5802;52.832;4.758;2023-03-23T09:30:19;24.20;43.20
11491;DHT22;5802;52.832;4.758;2023-03-23T09:32:46;24.30;43.30
11491;DHT22;5802;52.832;4.758;2023-03-23T09:35:16;24.30;43.30
11491;DHT22;5802;52.832;4.758;2023-03-23T09:37:44;24.30;43.50
11491;DHT22;5802;52.832;4.758;2023-03-23T09:40:14;24.40;43.60
11491;DHT22;5802;52.832;4.758;2023-03-23T09:46:00;24.50;43.60
11491;DHT22;5802;52.832;4.758;2023-03-23T09:48:36;24.50;43.50
11491;DHT22;5802;52.832;4.758;2023-03-23T09:51:13;24.50;43.70
11491;DHT22;5802;52.832;4.758;2023-03-23T09:53:43;24.50;44.20
11491;DHT22;5802;52.832;4.758;2023-03-23T09:56:13;24.60;43.90
11491;DHT22;5802;52.832;4.758;2023-03-23T09:58:46;24.60;43.90
11491;DHT22;5802;52.832;4.758;2023-03-23T10:01:17;24.60;43.70
11491;DHT22;5802;52.832;4.758;2023-03-23T10:03:46;24.70;43.60
11491;DHT22;5802;52.832;4.758;2023-03-23T10:06:16;24.70;43.60
11491;DHT22;5802;52.832;4.758;2023-03-23T10:08:47;24.70;43.50
11491;DHT22;5802;52.832;4.758;2023-03-23T10:11:18;24.70;43.40
11491;DHT22;5802;52.832;4.758;2023-03-23T10:14:03;24.70;43.40
11491;DHT22;5802;52.832;4.758;2023-03-23T10:16:36;24.80;43.40
11491;DHT22;5802;52.832;4.758;2023-03-23T10:19:10;24.80;43.30
11491;DHT22;5802;52.832;4.758;2023-03-23T10:21:41;24.80;43.30
11491;DHT22;5802;52.832;4.758;2023-03-23T10:24:14;24.80;43.30
11491;DHT22;5802;52.832;4.758;2023-03-23T10:26:48;24.80;43.10
11491;DHT22;5802;52.832;4.758;2023-03-23T10:29:21;24.90;43.10
11491;DHT22;5802;52.832;4.758;2023-03-23T10:31:52;24.90;43.10
11491;DHT22;5802;52.832;4.758;2023-03-23T10:34:23;24.90;43.10
11491;DHT22;5802;52.832;4.758;2023-03-23T10:36:56;24.90;43.00
11491;DHT22;5802;52.832;4.758;2023-03-23T10:39:29;24.90;43.00
11491;DHT22;5802;52.832;4.758;2023-03-23T10:41:56;24.90;42.90
11491;DHT22;5802;52.832;4.758;2023-03-23T10:44:28;24.90;43.00
11491;DHT22;5802;52.832;4.758;2023-03-23T10:46:59;25.00;42.90
11491;DHT22;5802;52.832;4.758;2023-03-23T10:49:29;25.00;42.90
11491;DHT22;5802;52.832;4.758;2023-03-23T10:52:03;25.00;42.90
11491;DHT22;5802;52.832;4.758;2023-03-23T10:54:36;25.00;42.90
11491;DHT22;5802;52.832;4.758;2023-03-23T10:57:12;25.00;42.80
11491;DHT22;5802;52.832;4.758;2023-03-23T10:59:40;25.00;42.90
11491;DHT22;5802;52.832;4.758;2023-03-23T11:02:20;25.10;43.00
11491;DHT22;5802;52.832;4.758;2023-03-23T11:04:59;25.00;43.00
11491;DHT22;5802;52.832;4.758;2023-03-23T11:07:30;25.00;43.00
11491;DHT22;5802;52.832;4.758;2023-03-23T11:10:08;25.00;42.70
11491;DHT22;5802;52.832;4.758;2023-03-23T11:12:44;25.00;42.40
11491;DHT22;5802;52.832;4.758;2023-03-23T11:15:23;25.00;42.30
11491;DHT22;5802;52.832;4.758;2023-03-23T11:18:01;25.00;42.10
11491;DHT22;5802;52.832;4.758;2023-03-23T11:20:34;25.00;42.00
11491;DHT22;5802;52.832;4.758;2023-03-23T11:23:17;25.00;42.00
11491;DHT22;5802;52.832;4.758;2023-03-23T11:25:59;25.00;41.90
11491;DHT22;5802;52.832;4.758;2023-03-23T11:28:30;25.00;41.80
11491;DHT22;5802;52.832;4.758;2023-03-23T11:30:58;24.90;41.60
11491;DHT22;5802;52.832;4.758;2023-03-23T11:33:29;25.00;41.60
11491;DHT22;5802;52.832;4.758;2023-03-23T11:35:56;25.00;41.50
11491;DHT22;5802;52.832;4.758;2023-03-23T11:38:25;25.00;41.50
11491;DHT22;5802;52.832;4.758;2023-03-23T11:40:54;25.00;41.50
11491;DHT22;5802;52.832;4.758;2023-03-23T11:43:22;25.00;41.60
11491;DHT22;5802;52.832;4.758;2023-03-23T11:45:58;24.90;41.60
11491;DHT22;5802;52.832;4.758;2023-03-23T11:48:30;25.10;41.50
11491;DHT22;5802;52.832;4.758;2023-03-23T11:51:00;25.30;41.30
11491;DHT22;5802;52.832;4.758;2023-03-23T11:53:37;25.20;41.20
11491;DHT22;5802;52.832;4.758;2023-03-23T11:56:15;25.20;41.20
11491;DHT22;5802;52.832;4.758;2023-03-23T11:58:44;25.10;41.30
11491;DHT22;5802;52.832;4.758;2023-03-23T12:01:19;25.10;41.40
11491;DHT22;5802;52.832;4.758;2023-03-23T12:04:09;25.10;41.50
11491;DHT22;5802;52.832;4.758;2023-03-23T12:06:45;25.10;41.40
11491;DHT22;5802;52.832;4.758;2023-03-23T12:09:25;25.10;41.50
11491;DHT22;5802;52.832;4.758;2023-03-23T12:12:05;25.10;41.50
11491;DHT22;5802;52.832;4.758;2023-03-23T12:14:38;25.10;41.50
11491;DHT22;5802;52.832;4.758;2023-03-23T12:17:18;25.20;41.60
11491;DHT22;5802;52.832;4.758;2023-03-23T12:19:54;25.20;41.60
11491;DHT22;5802;52.832;4.758;2023-03-23T12:22:32;25.20;41.50
11491;DHT22;5802;52.832;4.758;2023-03-23T12:25:12;25.20;41.40
11491;DHT22;5802;52.832;4.758;2023-03-23T12:27:46;25.30;41.30
11491;DHT22;5802;52.832;4.758;2023-03-23T12:30:21;25.30;41.20
11491;DHT22;5802;52.832;4.758;2023-03-23T12:33:03;25.30;41.10
11491;DHT22;5802;52.832;4.758;2023-03-23T12:35:43;25.40;41.00
11491;DHT22;5802;52.832;4.758;2023-03-23T12:38:24;25.40;40.90
11491;DHT22;5802;52.832;4.758;2023-03-23T12:41:02;25.40;40.80
11491;DHT22;5802;52.832;4.758;2023-03-23T12:43:36;25.40;40.70
11491;DHT22;5802;52.832;4.758;2023-03-23T12:46:19;25.50;40.70
11491;DHT22;5802;52.832;4.758;2023-03-23T12:48:50;25.50;40.60
11491;DHT22;5802;52.832;4.758;2023-03-23T12:51:22;25.50;41.20
11491;DHT22;5802;52.832;4.758;2023-03-23T12:53:57;25.50;41.10
11491;DHT22;5802;52.832;4.758;2023-03-23T12:56:31;25.60;40.60
11491;DHT22;5802;52.832;4.758;2023-03-23T12:59:05;25.60;40.30
11491;DHT22;5802;52.832;4.758;2023-03-23T13:01:37;25.60;40.00
11491;DHT22;5802;52.832;4.758;2023-03-23T13:04:09;25.60;39.90
11491;DHT22;5802;52.832;4.758;2023-03-23T13:06:38;25.60;39.90
11491;DHT22;5802;52.832;4.758;2023-03-23T13:09:11;25.60;39.90
11491;DHT22;5802;52.832;4.758;2023-03-23T13:11:42;25.60;39.80
11491;DHT22;5802;52.832;4.758;2023-03-23T13:14:23;25.60;39.70
11491;DHT22;5802;52.832;4.758;2023-03-23T13:17:10;25.60;39.70
11491;DHT22;5802;52.832;4.758;2023-03-23T13:19:59;25.50;39.50
11491;DHT22;5802;52.832;4.758;2023-03-23T13:22:31;25.50;39.50
11491;DHT22;5802;52.832;4.758;2023-03-23T13:25:02;25.50;39.60
11491;DHT22;5802;52.832;4.758;2023-03-23T13:27:31;25.50;39.60
11491;DHT22;5802;52.832;4.758;2023-03-23T13:29:58;25.50;39.50
11491;DHT22;5802;52.832;4.758;2023-03-23T13:32:36;25.50;39.50
11491;DHT22;5802;52.832;4.758;2023-03-23T13:35:11;25.50;39.50
11491;DHT22;5802;52.832;4.758;2023-03-23T13:37:42;25.40;39.50
11491;DHT22;5802;52.832;4.758;2023-03-23T13:40:24;25.40;39.50
11491;DHT22;5802;52.832;4.758;2023-03-23T13:42:56;25.40;39.50
11491;DHT22;5802;52.832;4.758;2023-03-23T13:45:42;25.40;39.40
11491;DHT22;5802;52.832;4.758;2023-03-23T13:48:19;25.40;39.50
11491;DHT22;5802;52.832;4.758;2023-03-23T13:50:51;25.40;39.50
11491;DHT22;5802;52.832;4.758;2023-03-23T13:53:27;25.40;39.50
11491;DHT22;5802;52.832;4.758;2023-03-23T13:56:07;25.30;39.40
11491;DHT22;5802;52.832;4.758;2023-03-23T13:58:45;25.30;39.40
11491;DHT22;5802;52.832;4.758;2023-03-23T14:01:15;25.30;39.40
11491;DHT22;5802;52.832;4.758;2023-03-23T14:03:45;25.30;39.40
11491;DHT22;5802;52.832;4.758;2023-03-23T14:06:18;25.30;39.30
11491;DHT22;5802;52.832;4.758;2023-03-23T14:08:48;25.30;39.10
11491;DHT22;5802;52.832;4.758;2023-03-23T14:11:20;25.30;39.30
11491;DHT22;5802;52.832;4.758;2023-03-23T14:14:01;25.30;39.40
11491;DHT22;5802;52.832;4.758;2023-03-23T14:16:37;25.30;39.60
11491;DHT22;5802;52.832;4.758;2023-03-23T14:19:15;25.40;39.80
11491;DHT22;5802;52.832;4.758;2023-03-23T14:21:48;25.30;40.20
11491;DHT22;5802;52.832;4.758;2023-03-23T14:24:17;25.30;40.20
11491;DHT22;5802;52.832;4.758;2023-03-23T14:26:44;25.30;40.30
11491;DHT22;5802;52.832;4.758;2023-03-23T14:29:13;25.30;40.50
11491;DHT22;5802;52.832;4.758;2023-03-23T14:31:40;25.30;40.60
11491;DHT22;5802;52.832;4.758;2023-03-23T14:34:12;25.30;40.80
11491;DHT22;5802;52.832;4.758;2023-03-23T14:36:39;25.30;41.00
11491;DHT22;5802;52.832;4.758;2023-03-23T14:39:12;25.30;41.80
11491;DHT22;5802;52.832;4.758;2023-03-23T14:41:41;25.20;41.10
11491;DHT22;5802;52.832;4.758;2023-03-23T14:44:14;25.20;41.10
11491;DHT22;5802;52.832;4.758;2023-03-23T14:46:41;25.20;41.20
11491;DHT22;5802;52.832;4.758;2023-03-23T14:49:14;25.20;41.30
11491;DHT22;5802;52.832;4.758;2023-03-23T14:51:47;25.20;41.30
11491;DHT22;5802;52.832;4.758;2023-03-23T14:54:14;25.20;41.20
11491;DHT22;5802;52.832;4.758;2023-03-23T14:56:47;25.20;41.20
11491;DHT22;5802;52.832;4.758;2023-03-23T14:59:15;25.20;41.20
11491;DHT22;5802;52.832;4.758;2023-03-23T15:01:42;25.20;41.20
11491;DHT22;5802;52.832;4.758;2023-03-23T15:04:13;25.20;41.10
11491;DHT22;5802;52.832;4.758;2023-03-23T15:06:48;25.20;41.10
11491;DHT22;5802;52.832;4.758;2023-03-23T15:09:17;25.20;41.10
11491;DHT22;5802;52.832;4.758;2023-03-23T15:11:52;25.20;41.10
11491;DHT22;5802;52.832;4.758;2023-03-23T15:14:22;25.20;41.20
11491;DHT22;5802;52.832;4.758;2023-03-23T15:16:50;25.10;41.10
11491;DHT22;5802;52.832;4.758;2023-03-23T15:19:20;25.10;41.20
11491;DHT22;5802;52.832;4.758;2023-03-23T15:21:49;25.10;41.20
11491;DHT22;5802;52.832;4.758;2023-03-23T15:24:24;25.20;41.20
11491;DHT22;5802;52.832;4.758;2023-03-23T15:26:52;25.10;41.20
11491;DHT22;5802;52.832;4.758;2023-03-23T15:29:21;25.20;41.30
11491;DHT22;5802;52.832;4.758;2023-03-23T15:31:52;25.10;41.20
11491;DHT22;5802;52.832;4.758;2023-03-23T15:34:28;25.10;41.20
11491;DHT22;5802;52.832;4.758;2023-03-23T15:36:58;25.10;41.30
11491;DHT22;5802;52.832;4.758;2023-03-23T15:39:26;25.10;41.30
11491;DHT22;5802;52.832;4.758;2023-03-23T15:41:54;25.10;41.40
11491;DHT22;5802;52.832;4.758;2023-03-23T15:44:25;25.10;41.40
11491;DHT22;5802;52.832;4.758;2023-03-23T15:47:03;25.10;41.40
11491;DHT22;5802;52.832;4.758;2023-03-23T15:49:30;25.10;41.40
11491;DHT22;5802;52.832;4.758;2023-03-23T15:51:57;25.10;41.40
11491;DHT22;5802;52.832;4.758;2023-03-23T15:54:23;25.10;41.40
11491;DHT22;5802;52.832;4.758;2023-03-23T15:56:55;25.10;41.50
11491;DHT22;5802;52.832;4.758;2023-03-23T15:59:23;25.00;41.40
11491;DHT22;5802;52.832;4.758;2023-03-23T16:01:50;25.00;41.30
11491;DHT22;5802;52.832;4.758;2023-03-23T16:04:18;25.10;41.40
11491;DHT22;5802;52.832;4.758;2023-03-23T16:06:45;25.00;41.30
11491;DHT22;5802;52.832;4.758;2023-03-23T16:09:14;25.00;41.30
11491;DHT22;5802;52.832;4.758;2023-03-23T16:11:41;25.00;41.30
11491;DHT22;5802;52.832;4.758;2023-03-23T16:14:07;25.00;41.30